createdAt,value
2018-12-06T00:02:44.594Z,0.50
2018-12-06T00:07:57.712Z,0.70
2018-12-06T00:13:02.234Z,13.17
2018-12-06T00:18:06.642Z,0.83
2018-12-06T00:23:11.624Z,0.83
2018-12-06T00:28:16.634Z,7.13
2018-12-06T00:33:21.135Z,1.50
2018-12-06T00:38:25.578Z,1.57
2018-12-06T00:43:29.989Z,0.90
2018-12-06T00:48:34.399Z,3.97
2018-12-06T00:53:38.869Z,0.70
2018-12-06T00:58:43.339Z,0.70
2018-12-06T01:03:47.819Z,0.80
2018-12-06T01:08:52.214Z,0.60
2018-12-06T01:13:56.668Z,0.70
2018-12-06T01:19:01.152Z,0.70
2018-12-06T01:24:05.535Z,1.00
2018-12-06T01:29:09.792Z,0.97
2018-12-06T01:34:14.238Z,12.33
2018-12-06T01:39:18.600Z,1.00
2018-12-06T01:44:22.849Z,1.20
2018-12-06T01:49:27.164Z,0.40
2018-12-06T01:54:31.588Z,0.70
2018-12-06T01:59:35.908Z,7.33
2018-12-06T02:04:40.138Z,0.60
2018-12-06T02:09:44.458Z,0.40
2018-12-06T02:14:48.832Z,0.40
2018-12-06T02:19:53.088Z,0.53
2018-12-06T02:24:57.427Z,0.40
2018-12-06T02:30:01.863Z,0.80
2018-12-06T02:35:06.333Z,0.80
2018-12-06T02:40:10.787Z,5.77
2018-12-06T02:45:15.148Z,1.33
2018-12-06T02:50:19.554Z,1.60
2018-12-06T02:55:24.013Z,3.33
2018-12-06T03:00:28.382Z,1.90
2018-12-06T03:05:33.432Z,3.93
2018-12-06T03:10:37.868Z,1.47
2018-12-06T03:15:42.149Z,3.37
2018-12-06T03:20:46.580Z,2.57
2018-12-06T03:25:50.868Z,1.45
2018-12-06T03:30:55.134Z,1.50
2018-12-06T03:35:59.632Z,1.03
2018-12-06T03:41:03.888Z,0.90
2018-12-06T03:46:08.236Z,20.10
2018-12-06T03:51:12.638Z,1.17
2018-12-06T03:56:16.993Z,1.00
2018-12-06T04:01:21.258Z,1.10
2018-12-06T04:06:25.611Z,1.13
2018-12-06T04:11:29.861Z,1.10
2018-12-06T04:16:34.213Z,1.00
2018-12-06T04:21:38.529Z,1.10
2018-12-06T04:26:42.730Z,6.42
2018-12-06T04:31:47.099Z,1.00
2018-12-06T04:36:51.395Z,0.90
2018-12-06T04:41:55.693Z,15.63
2018-12-06T04:47:00.075Z,1.27
2018-12-06T04:52:04.469Z,0.93
2018-12-06T04:57:08.972Z,2.83
2018-12-06T05:02:13.235Z,0.93
2018-12-06T05:07:17.560Z,1.60
2018-12-06T05:12:21.968Z,1.67
2018-12-06T05:17:26.183Z,4.10
2018-12-06T05:22:30.644Z,1.73
2018-12-06T05:27:34.939Z,1.23
2018-12-06T05:32:39.425Z,1.10
2018-12-06T05:37:43.715Z,6.23
2018-12-06T05:42:47.944Z,1.00
2018-12-06T05:47:52.255Z,1.27
2018-12-06T05:52:56.561Z,1.37
2018-12-06T05:58:00.834Z,1.53
2018-12-06T06:03:05.225Z,25.87
2018-12-06T06:08:09.645Z,3.07
2018-12-06T06:13:14.133Z,1.33
2018-12-06T06:18:18.483Z,26.33
2018-12-06T06:23:22.799Z,17.97
2018-12-06T06:28:27.213Z,13.37
2018-12-06T06:33:31.812Z,1.63
2018-12-06T06:38:36.368Z,7.13
2018-12-06T06:43:40.523Z,2.27
2018-12-06T06:48:44.699Z,12.25
2018-12-06T06:53:49.003Z,9.13
2018-12-06T06:58:53.403Z,2.20
2018-12-06T07:03:57.713Z,12.10
2018-12-06T07:09:02.248Z,15.03
2018-12-06T07:14:06.494Z,10.97
2018-12-06T07:19:10.879Z,8.47
2018-12-06T07:24:15.228Z,7.90
2018-12-06T07:29:19.619Z,15.63
2018-12-06T07:34:23.996Z,17.47
2018-12-06T07:39:28.244Z,11.20
2018-12-06T07:44:32.524Z,8.17
2018-12-06T07:49:36.955Z,15.03
2018-12-06T07:54:41.290Z,28.67
2018-12-06T07:59:45.598Z,1.92
2018-12-06T08:04:50.350Z,33.63
2018-12-06T08:09:55.821Z,11.90
2018-12-06T08:15:00.355Z,33.53
2018-12-06T08:20:05.636Z,5.77
2018-12-06T08:25:10.202Z,29.10
2018-12-06T08:30:15.364Z,8.13
2018-12-06T08:35:19.894Z,26.00
2018-12-06T08:40:24.837Z,22.70
2018-12-06T08:45:29.774Z,26.93
2018-12-06T08:50:34.564Z,7.47
2018-12-06T08:55:39.269Z,26.10
2018-12-06T09:00:43.758Z,30.43
2018-12-06T09:05:48.603Z,21.67
2018-12-06T09:10:53.301Z,26.30
2018-12-06T09:15:57.823Z,18.73
2018-12-06T09:21:02.501Z,24.53
2018-12-06T09:26:07.150Z,10.50
2018-12-06T09:31:11.785Z,24.83
2018-12-06T09:36:16.279Z,41.17
2018-12-06T09:41:20.941Z,56.93
2018-12-06T09:46:25.502Z,13.87
2018-12-06T09:51:30.279Z,34.30
2018-12-06T09:56:34.884Z,46.17
2018-12-06T10:01:39.674Z,31.30
2018-12-06T10:06:44.232Z,38.45
2018-12-06T10:11:48.829Z,25.62
2018-12-06T10:16:53.290Z,29.13
2018-12-06T10:21:57.956Z,16.32
2018-12-06T10:27:02.477Z,8.70
2018-12-06T10:32:06.991Z,26.05
2018-12-06T10:37:11.514Z,22.17
2018-12-06T10:42:16.120Z,25.80
2018-12-06T10:47:21.214Z,17.83
2018-12-06T10:52:25.939Z,29.95
2018-12-06T10:57:30.514Z,7.83
2018-12-06T11:02:39.448Z,29.33
2018-12-06T11:07:45.385Z,48.15
2018-12-06T11:12:50.687Z,20.93
2018-12-06T11:17:55.400Z,30.60
2018-12-06T11:23:00.065Z,13.83
2018-12-06T11:28:05.018Z,26.63
2018-12-06T11:33:10.241Z,24.37
2018-12-06T11:38:14.883Z,25.77
2018-12-06T11:43:20.321Z,28.43
2018-12-06T11:54:37.613Z,59.20
2018-12-06T11:59:46.227Z,67.40
2018-12-06T12:04:51.057Z,45.00
2018-12-06T12:26:16.862Z,74.40
2018-12-06T12:31:22.847Z,47.37
2018-12-06T12:36:27.980Z,88.87
2018-12-06T12:41:32.877Z,99.80
2018-12-06T12:46:37.623Z,56.50
2018-12-06T12:51:42.411Z,95.03
2018-12-06T12:56:47.313Z,76.40
2018-12-06T13:01:52.273Z,113.07
2018-12-06T13:07:03.225Z,149.17
2018-12-06T13:12:09.313Z,201.37
2018-12-06T13:17:14.156Z,89.40
2018-12-06T13:22:19.106Z,64.27
2018-12-06T13:27:24.071Z,90.43
2018-12-06T13:32:29.214Z,89.77
2018-12-06T13:37:34.651Z,59.37
2018-12-06T13:42:39.508Z,78.75
2018-12-06T13:47:44.568Z,143.83
2018-12-06T13:52:49.503Z,132.75
2018-12-06T13:57:54.447Z,157.93
2018-12-06T14:02:59.155Z,166.97
2018-12-06T14:08:03.964Z,138.77
2018-12-06T14:13:08.669Z,105.87
2018-12-06T14:18:13.383Z,137.03
2018-12-06T14:23:17.972Z,157.93
2018-12-06T14:28:22.565Z,62.00
2018-12-06T14:33:27.247Z,218.50
2018-12-06T14:38:31.944Z,116.93
2018-12-06T14:43:36.904Z,246.03
2018-12-06T14:48:41.667Z,112.23
2018-12-06T14:53:46.426Z,100.50
2018-12-06T14:58:52.847Z,201.30
2018-12-06T15:03:57.367Z,138.33
2018-12-06T15:09:02.045Z,187.03
2018-12-06T15:14:06.725Z,250.33
2018-12-06T15:19:11.428Z,45.80
2018-12-06T15:24:16.144Z,102.07
2018-12-06T15:29:20.756Z,63.27
2018-12-06T15:34:25.467Z,49.73
2018-12-06T15:39:30.186Z,83.20
2018-12-06T15:44:34.764Z,47.53
2018-12-06T15:49:39.569Z,58.27
2018-12-06T15:54:44.285Z,40.63
2018-12-06T15:59:51.806Z,106.60
2018-12-06T16:04:56.706Z,43.50
2018-12-06T16:10:01.413Z,60.43
2018-12-06T16:15:07.447Z,109.40
2018-12-06T16:20:12.378Z,333.93
2018-12-06T16:25:17.186Z,361.83
2018-12-06T16:30:21.986Z,74.47
2018-12-06T16:35:32.924Z,205.60
2018-12-06T16:46:14.846Z,61.83
2018-12-06T16:51:19.644Z,71.07
2018-12-06T16:56:27.966Z,125.80
2018-12-06T17:01:34.105Z,30.70
2018-12-06T17:06:39.186Z,112.40
2018-12-06T17:11:43.803Z,59.03
2018-12-06T17:16:48.544Z,73.67
2018-12-06T17:21:53.244Z,84.37
2018-12-06T17:26:57.906Z,65.77
2018-12-06T17:32:02.586Z,46.20
2018-12-06T17:37:07.145Z,20.00
2018-12-06T17:42:11.825Z,38.23
2018-12-06T17:47:16.486Z,24.23
2018-12-06T17:52:21.306Z,65.50
2018-12-06T17:57:25.998Z,63.53
2018-12-06T18:02:30.706Z,206.83
2018-12-06T18:07:35.545Z,34.90
2018-12-06T18:12:40.265Z,26.73
2018-12-06T18:17:45.166Z,29.87
2018-12-06T18:22:49.866Z,19.23
2018-12-06T18:27:54.483Z,4.03
2018-12-06T18:32:59.066Z,10.20
2018-12-06T18:38:03.665Z,3.90
2018-12-06T18:43:08.405Z,14.83
2018-12-06T18:48:13.046Z,14.90
2018-12-06T18:53:17.584Z,9.43
2018-12-06T18:58:22.144Z,8.87
2018-12-06T19:03:28.156Z,6.00
2018-12-06T19:08:32.800Z,9.90
2018-12-06T19:13:37.466Z,21.17
2018-12-06T19:18:42.284Z,19.92
2018-12-06T19:23:46.963Z,17.67
2018-12-06T19:28:51.693Z,41.40
2018-12-06T19:33:56.425Z,48.07
2018-12-06T19:39:01.105Z,17.33
2018-12-06T19:44:05.824Z,36.60
2018-12-06T19:49:10.467Z,12.47
2018-12-06T19:54:14.939Z,27.73
2018-12-06T19:59:19.644Z,9.80
2018-12-06T20:04:24.209Z,15.63
2018-12-06T20:09:28.924Z,15.53
2018-12-06T20:14:33.684Z,18.00
2018-12-06T20:19:38.427Z,25.33
2018-12-06T20:24:43.105Z,23.23
2018-12-06T20:30:50.870Z,14.75
2018-12-06T20:35:55.567Z,31.10
2018-12-06T20:41:00.306Z,43.55
2018-12-06T20:46:04.964Z,63.43
2018-12-06T20:51:09.769Z,81.47
2018-12-06T20:56:14.306Z,52.10
2018-12-06T21:01:18.986Z,138.83
2018-12-06T21:06:23.627Z,72.78
2018-12-06T21:11:28.367Z,55.37
2018-12-06T21:16:33.146Z,82.90
2018-12-06T21:21:37.866Z,106.77
2018-12-06T21:26:42.564Z,78.00
2018-12-06T21:31:47.306Z,24.97
2018-12-06T21:36:51.984Z,31.55
2018-12-06T21:41:56.726Z,37.53
2018-12-06T21:47:01.327Z,11.73
2018-12-06T21:52:06.506Z,19.57
2018-12-06T21:57:11.149Z,22.00
2018-12-06T22:02:24.005Z,18.43
2018-12-06T22:07:28.705Z,20.43
2018-12-06T22:12:33.425Z,22.63
2018-12-06T22:17:38.225Z,29.57
2018-12-06T22:22:42.967Z,12.80
2018-12-06T22:27:47.630Z,13.10
2018-12-06T22:32:52.346Z,25.53
2018-12-06T22:37:57.027Z,28.97
2018-12-06T22:43:01.747Z,37.03
2018-12-06T22:48:06.549Z,36.60
2018-12-06T22:53:11.148Z,33.33
2018-12-06T22:58:15.907Z,64.17
2018-12-06T23:03:22.634Z,65.10
2018-12-06T23:08:27.445Z,95.90
2018-12-06T23:13:32.167Z,124.43
2018-12-06T23:18:36.786Z,80.40
2018-12-06T23:23:41.424Z,90.38
2018-12-06T23:28:46.168Z,67.73
2018-12-06T23:33:50.979Z,81.82
2018-12-06T23:38:56.107Z,61.47
2018-12-06T23:44:00.727Z,65.53
2018-12-06T23:49:05.469Z,70.53
2018-12-06T23:54:10.188Z,73.23
2018-12-06T23:59:14.885Z,72.20
